CheckWX is a tool to help pilots better visualize weather data.  It is not intended as a substitute for an official pre-flight weather briefing.

04:17:16 UTC

KEED TAF
Needles Airport
Needles, California, USA
KEED 262320Z 2700/2724 19013G23KT P6SM FEW250 FM270700 24008KT P6SM FEW250 FM271700 19014G22KT P6SM FEW250

Jun-27@
00:00 UTC

Jun-27 @ 00:00 UTC

Jun-27@
07:00 UTC

Jun-27 @ 07:00 UTC

KEED 262320Z 2700/2724 19013G23KT P6SM FEW250
Wind
  • 190° at 13 KTS
  • {Gusting to 23 KTS
Cloud Levels
  • Few at 25,000' AGL

Jun-27@
07:00 UTC

Jun-27 @ 07:00 UTC

Jun-27@
17:00 UTC

Jun-27 @ 17:00 UTC

FM270700 24008KT P6SM FEW250

From

From Standard forecast or significant change

Wind
  • 240° at 8 KTS
Cloud Levels
  • Few at 25,000' AGL

Jun-27@
17:00 UTC

Jun-27 @ 17:00 UTC

Jun-28@
00:00 UTC

Jun-28 @ 00:00 UTC

FM271700 19014G22KT P6SM FEW250

From

From Standard forecast or significant change

Wind
  • 190° at 14 KTS
  • {Gusting to 22 KTS
Cloud Levels
  • Few at 25,000' AGL